Scarborough, United Kingdom
Current Conditions -  °F | °C
As of 4:50 PM on Sunday 21 Dec 2014 (Local Time) from EGXV Reporting Station
Clear Clear  
Wind Chill: 52°   Ceiling: Unl
Heat Index: 52°   Visibility: 6mi
Dew Point: 45°   Wind: 25mph
Humidity: 76%   Direction: 230°SW
Pressure: 29.91"   Gusts: NA
Location:  54.28°N, 0.4°W
Report Text: EGXV 211650Z AUTO 23022KT 9999 NCD 11/07 Q1013
Loading
Personal Weather Stations






























Interactive Weather Map New forecast layout! Learn more

10-Day Weather Forecast

Advertisements
Track Severe Weather on mobile